Cape Magnolia — 3FGP2 — position and weather

sailwx.info

Track history (hours):
 
Tides and Currents Weather Stations Pressure Air Temp Water Temp Dewpoint Dewpoint Depression Visibility Wind Speed Wind Dir Waves Ship Positions

Cape Magnolia

Last reported at 2015-Jul-01 05:20 UTC. Time now 2015-Jul-01 16:56 UTC.
Position N 34°47' E 139°34'.

Length 292 m; draft 10 m.

Type: Ship. MMSI: 357427000.

Date/timePositionNaut miles runAvg speedWind from/ knotsBaromVisibWave heightAir tempDewpointWater temp
2015-Jul-01 05:20N 34°47' E 139°34'7 9.3
2015-Jul-01 04:33N 34°54' E 139°37'10 9.5
2015-Jul-01 03:33N 35°02' E 139°41'1110.9
2015-Jul-01 02:33N 35°12' E 139°46'1211.9
2015-Jul-01 01:33N 35°24' E 139°43'1414.0
2015-Jul-01 00:33N 35°32' E 139°57'8 8.3
2015-Jun-30 23:33N 35°35' E 140°06'0 0.1
2015-Jun-30 21:32N 35°35' E 140°06'0 0.0
2015-Jun-30 20:32N 35°35' E 140°06'0 0.0
2015-Jun-30 19:32N 35°35' E 140°06'0 0.0
2015-Jun-30 18:26N 35°35' E 140°06'0 0.0
2015-Jun-30 16:08N 35°35' E 140°06'0 0.0
2015-Jun-30 15:26N 35°35' E 140°06'0 0.0
2015-Jun-30 14:26N 35°35' E 140°06'0 0.0
2015-Jun-30 13:32N 35°35' E 140°06'0 0.0
2015-Jun-30 12:32N 35°35' E 140°06'0 0.0
2015-Jun-30 11:32N 35°35' E 140°06'0 0.0
2015-Jun-30 10:32N 35°35' E 140°06'0 0.0
2015-Jun-30 09:20N 35°35' E 140°06'0 0.0
2015-Jun-30 08:32N 35°35' E 140°06'0 0.0
2015-Jun-30 07:26N 35°35' E 140°06'0 0.0
2015-Jun-30 06:32N 35°35' E 140°06'0 0.0
2015-Jun-30 05:32N 35°35' E 140°06'0 0.0
2015-Jun-30 04:14N 35°35' E 140°06'0 0.0
2015-Jun-30 02:14N 35°35' E 140°06'0 0.0
2015-Jun-30 01:20N 35°35' E 140°06'0 0.0
2015-Jun-30 00:20N 35°35' E 140°06'0 0.0
2015-Jun-29 23:32N 35°35' E 140°06'0 0.0
2015-Jun-29 22:32N 35°35' E 140°06'0 0.0
2015-Jun-29 21:08N 35°35' E 140°06'0 0.0
2015-Jun-29 20:32N 35°35' E 140°06'0 0.0
2015-Jun-29 19:08N 35°35' E 140°06'0 0.0
2015-Jun-29 17:26N 35°35' E 140°06'0 0.0
2015-Jun-29 16:20N 35°35' E 140°06'0 0.0
2015-Jun-29 15:32N 35°35' E 140°06'0 0.0
2015-Jun-29 14:26N 35°35' E 140°06'0 0.0
2015-Jun-29 13:32N 35°35' E 140°06'0 0.0
2015-Jun-29 10:26N 35°35' E 140°06'0 0.0
2015-Jun-29 09:32N 35°35' E 140°06'0 0.0
2015-Jun-29 08:32N 35°35' E 140°06'0 0.0
2015-Jun-29 07:20N 35°35' E 140°06'1 1.7
2015-Jun-29 06:33N 35°36' E 140°05'7 6.8
2015-Jun-29 05:33N 35°32' E 139°58'3 2.6
2015-Jun-29 04:30N 35°31' E 139°54'0 0.1
2015-Jun-29 03:30N 35°31' E 139°54'0 0.1
2015-Jun-29 02:33N 35°31' E 139°54'0 0.1
2015-Jun-29 01:33N 35°31' E 139°54'0 0.0
2015-Jun-29 00:33N 35°31' E 139°54'0 0.0
2015-Jun-28 23:33N 35°31' E 139°54'0 0.0
2015-Jun-28 22:33N 35°31' E 139°54'0 0.0
2015-Jun-28 21:33N 35°31' E 139°54'0 0.0
2015-Jun-28 20:33N 35°31' E 139°54'0 0.0
2015-Jun-28 19:30N 35°31' E 139°54'0 0.0
2015-Jun-28 18:33N 35°31' E 139°54'0 0.0
2015-Jun-28 17:33N 35°31' E 139°54'0 0.0
2015-Jun-28 16:33N 35°31' E 139°54'0 0.0
2015-Jun-28 15:33N 35°31' E 139°54'0 0.1
2015-Jun-28 14:33N 35°31' E 139°54'0 0.1
2015-Jun-28 13:30N 35°31' E 139°54'0 0.0
2015-Jun-28 12:30N 35°31' E 139°54'0 0.0
2015-Jun-28 11:30N 35°31' E 139°54'0 0.0
2015-Jun-28 10:27N 35°31' E 139°54'0 0.0
2015-Jun-28 09:30N 35°31' E 139°54'0 0.0
2015-Jun-28 08:30N 35°31' E 139°54'0 0.1
2015-Jun-28 07:30N 35°31' E 139°54'0 0.0
2015-Jun-28 06:30N 35°31' E 139°54'0 0.1
2015-Jun-28 05:33N 35°31' E 139°54'0 0.1
2015-Jun-28 04:33N 35°31' E 139°54'0 0.0
2015-Jun-28 03:30N 35°31' E 139°54'0 0.2
2015-Jun-28 02:30N 35°31' E 139°54'5 4.9
2015-Jun-28 01:33N 35°28' E 139°50'1111.4
2015-Jun-28 00:33N 35°17' E 139°46'1010.1
2015-Jun-27 23:33N 35°07' E 139°46'7 7.2
2015-Jun-27 22:33N 35°00' E 139°42'8 7.8
2015-Jun-27 21:33N 34°52' E 139°42'10 9.5
2015-Jun-27 20:32N 34°43' E 139°41'  
2015-Jun-22 19:33N 34°35' E 134°53'1010.1
2015-Jun-22 18:33N 34°36' E 135°05'4 4.2
2015-Jun-22 17:33N 34°34' E 135°10'0 0.1
2015-Jun-22 16:33N 34°34' E 135°10'0 0.4
2015-Jun-22 15:33N 34°34' E 135°09'6 6.1
2015-Jun-22 14:33N 34°28' E 135°06'1312.6
2015-Jun-22 13:33N 34°17' E 134°59'1110.5
2015-Jun-22 12:33N 34°07' E 135°00'9 9.3
2015-Jun-22 11:33N 33°57' E 135°00'  
Track history (hours):
 
Tides and Currents Weather Stations Pressure Air Temp Water Temp Dewpoint Dewpoint Depression Visibility Wind Speed Wind Dir Waves Ship Positions

Cape Magnolia

Last reported at 2015-Jul-01 05:20 UTC. Time now 2015-Jul-01 16:56 UTC.
Position N 34°47' E 139°34'.

Length 292 m; draft 10 m.

Type: Ship. MMSI: 357427000.

Date/timePositionNaut miles runAvg speedWind from/ knotsBaromVisibWave heightAir tempDewpointWater temp
2015-Jul-01 05:20N 34°47' E 139°34'7 9.3
2015-Jul-01 04:33N 34°54' E 139°37'10 9.5
2015-Jul-01 03:33N 35°02' E 139°41'1110.9
2015-Jul-01 02:33N 35°12' E 139°46'1211.9
2015-Jul-01 01:33N 35°24' E 139°43'1414.0
2015-Jul-01 00:33N 35°32' E 139°57'8 8.3
2015-Jun-30 23:33N 35°35' E 140°06'0 0.1
2015-Jun-30 21:32N 35°35' E 140°06'0 0.0
2015-Jun-30 20:32N 35°35' E 140°06'0 0.0
2015-Jun-30 19:32N 35°35' E 140°06'0 0.0
2015-Jun-30 18:26N 35°35' E 140°06'0 0.0
2015-Jun-30 16:08N 35°35' E 140°06'0 0.0
2015-Jun-30 15:26N 35°35' E 140°06'0 0.0
2015-Jun-30 14:26N 35°35' E 140°06'0 0.0
2015-Jun-30 13:32N 35°35' E 140°06'0 0.0
2015-Jun-30 12:32N 35°35' E 140°06'0 0.0
2015-Jun-30 11:32N 35°35' E 140°06'0 0.0
2015-Jun-30 10:32N 35°35' E 140°06'0 0.0
2015-Jun-30 09:20N 35°35' E 140°06'0 0.0
2015-Jun-30 08:32N 35°35' E 140°06'0 0.0
2015-Jun-30 07:26N 35°35' E 140°06'0 0.0
2015-Jun-30 06:32N 35°35' E 140°06'0 0.0
2015-Jun-30 05:32N 35°35' E 140°06'0 0.0
2015-Jun-30 04:14N 35°35' E 140°06'0 0.0
2015-Jun-30 02:14N 35°35' E 140°06'0 0.0
2015-Jun-30 01:20N 35°35' E 140°06'0 0.0
2015-Jun-30 00:20N 35°35' E 140°06'0 0.0
2015-Jun-29 23:32N 35°35' E 140°06'0 0.0
2015-Jun-29 22:32N 35°35' E 140°06'0 0.0
2015-Jun-29 21:08N 35°35' E 140°06'0 0.0
2015-Jun-29 20:32N 35°35' E 140°06'0 0.0
2015-Jun-29 19:08N 35°35' E 140°06'0 0.0
2015-Jun-29 17:26N 35°35' E 140°06'0 0.0
2015-Jun-29 16:20N 35°35' E 140°06'0 0.0
2015-Jun-29 15:32N 35°35' E 140°06'0 0.0
2015-Jun-29 14:26N 35°35' E 140°06'0 0.0
2015-Jun-29 13:32N 35°35' E 140°06'0 0.0
2015-Jun-29 10:26N 35°35' E 140°06'0 0.0
2015-Jun-29 09:32N 35°35' E 140°06'0 0.0
2015-Jun-29 08:32N 35°35' E 140°06'0 0.0
2015-Jun-29 07:20N 35°35' E 140°06'1 1.7
2015-Jun-29 06:33N 35°36' E 140°05'7 6.8
2015-Jun-29 05:33N 35°32' E 139°58'3 2.6
2015-Jun-29 04:30N 35°31' E 139°54'0 0.1
2015-Jun-29 03:30N 35°31' E 139°54'0 0.1
2015-Jun-29 02:33N 35°31' E 139°54'0 0.1
2015-Jun-29 01:33N 35°31' E 139°54'0 0.0
2015-Jun-29 00:33N 35°31' E 139°54'0 0.0
2015-Jun-28 23:33N 35°31' E 139°54'0 0.0
2015-Jun-28 22:33N 35°31' E 139°54'0 0.0
2015-Jun-28 21:33N 35°31' E 139°54'0 0.0
2015-Jun-28 20:33N 35°31' E 139°54'0 0.0
2015-Jun-28 19:30N 35°31' E 139°54'0 0.0
2015-Jun-28 18:33N 35°31' E 139°54'0 0.0
2015-Jun-28 17:33N 35°31' E 139°54'0 0.0
2015-Jun-28 16:33N 35°31' E 139°54'0 0.0
2015-Jun-28 15:33N 35°31' E 139°54'0 0.1
2015-Jun-28 14:33N 35°31' E 139°54'0 0.1
2015-Jun-28 13:30N 35°31' E 139°54'0 0.0
2015-Jun-28 12:30N 35°31' E 139°54'0 0.0
2015-Jun-28 11:30N 35°31' E 139°54'0 0.0
2015-Jun-28 10:27N 35°31' E 139°54'0 0.0
2015-Jun-28 09:30N 35°31' E 139°54'0 0.0
2015-Jun-28 08:30N 35°31' E 139°54'0 0.1
2015-Jun-28 07:30N 35°31' E 139°54'0 0.0
2015-Jun-28 06:30N 35°31' E 139°54'0 0.1
2015-Jun-28 05:33N 35°31' E 139°54'0 0.1
2015-Jun-28 04:33N 35°31' E 139°54'0 0.0
2015-Jun-28 03:30N 35°31' E 139°54'0 0.2
2015-Jun-28 02:30N 35°31' E 139°54'5 4.9
2015-Jun-28 01:33N 35°28' E 139°50'1111.4
2015-Jun-28 00:33N 35°17' E 139°46'1010.1
2015-Jun-27 23:33N 35°07' E 139°46'7 7.2
2015-Jun-27 22:33N 35°00' E 139°42'8 7.8
2015-Jun-27 21:33N 34°52' E 139°42'10 9.5
2015-Jun-27 20:32N 34°43' E 139°41'  
2015-Jun-22 19:33N 34°35' E 134°53'1010.1
2015-Jun-22 18:33N 34°36' E 135°05'4 4.2
2015-Jun-22 17:33N 34°34' E 135°10'0 0.1
2015-Jun-22 16:33N 34°34' E 135°10'0 0.4
2015-Jun-22 15:33N 34°34' E 135°09'6 6.1
2015-Jun-22 14:33N 34°28' E 135°06'1312.6
2015-Jun-22 13:33N 34°17' E 134°59'1110.5
2015-Jun-22 12:33N 34°07' E 135°00'9 9.3
2015-Jun-22 11:33N 33°57' E 135°00'  

Dump ship's entire track history